Monday, February 19, 2018, 10:03 AM GMT
Back to Local

CYTR, Trenton, Ont.

Location: , , Canada Lat: 44.117
Local Time: 10:03 AM GMT (10:03 GMT) Lon: -77.533
Time Zone: GMT Elev: 278 ft

Show me the last for .
Show Coded

Time T Td Feel RH Dir Speed Gust Alt SLP Vis Weather Sky Remarks
2018-02-19 09:00 32 27 26 80 140° 6 - 30.18 30.20 15 CLR None
2018-02-19 08:00 28 25 25 86 80° 3 - 30.21 30.22 15 OVC210 None
2018-02-19 07:00 30 25 25 80 80° 5 - 30.24 30.26 15 BKN210 None
2018-02-19 06:00 30 25 27 80 110° 3 - 30.27 30.28 15 OVC220 None
2018-02-19 05:00 32 25 29 74 170° 3 - 30.29 30.30 15 FEW150 OVC220 None
2018-02-19 04:00 32 25 27 74 170° 5 - 30.31 30.32 15 FEW150 OVC220 None
2018-02-19 03:00 30 27 - 86 180° 2 - 30.34 30.35 15 FEW140 BKN250 None
2018-02-19 02:00 32 25 27 74 190° 5 - 30.34 30.36 15 CLR None
2018-02-19 01:00 32 27 26 80 200° 6 - 30.37 30.39 15 FEW046 None
2018-02-19 00:00 34 27 28 74 220° 7 - 30.39 30.40 15 SCT046 None
2018-02-18 23:00 36 27 29 69 230° 8 - 30.38 30.40 15 BKN043 None
2018-02-18 22:00 36 28 28 74 250° 12 - 30.37 30.38 15 BKN043 None
2018-02-18 21:00 36 27 28 69 230° 10 - 30.32 30.33 15 BKN043 None
2018-02-18 20:00 36 27 28 69 220° 10 - 30.31 30.32 15 BKN043 None
2018-02-18 19:00 36 23 30 59 260° 7 - 30.30 30.31 15 BKN043 None
2018-02-18 18:00 36 25 29 64 300° 8 - 30.31 30.32 15 BKN035 BKN230 None
2018-02-18 17:00 37 25 31 60 260° 9 - 30.29 30.30 15 BKN035 BKN230 None
2018-02-18 16:00 36 25 25 64 300° 12 18 30.27 30.28 15 SCT030 BKN063 None
2018-02-18 15:00 34 25 26 69 250° 10 - 30.27 30.28 15 SCT039 BKN063 None
2018-02-18 14:00 32 25 24 74 250° 9 - 30.24 30.25 12 BKN039 BKN063 None
2018-02-18 13:34 30 25 23 80 260° 8 - 30.23 30.25 10 BKN033 BKN060 None
2018-02-18 13:18 30 25 22 80 240° 9 - 30.23 30.24 10 -SHSN BKN033 BKN060 None
2018-02-18 13:00 30 25 21 80 240° 10 - 30.23 30.24 10 BKN033 OVC060 Pressure rising rapidly
2018-02-18 12:00 28 23 20 79 250° 9 - 30.17 30.18 8 BKN037 OVC060 None
2018-02-18 11:00 25 21 17 85 250° 7 - 30.12 30.14 15 BKN040 None

Support USWX by starting your Amazon purchase here.